createdAt,value
2023-05-09T00:00:29.230Z,0.00
2023-05-09T00:01:20.458Z,0.00
2023-05-09T00:02:11.637Z,0.00
2023-05-09T00:03:02.795Z,0.00
2023-05-09T00:03:53.877Z,0.00
2023-05-09T00:04:44.947Z,0.00
2023-05-09T00:05:35.865Z,0.00
2023-05-09T00:06:27.241Z,0.00
2023-05-09T00:07:18.389Z,0.00
2023-05-09T00:08:09.557Z,0.00
2023-05-09T00:09:00.816Z,0.00
2023-05-09T00:09:52.100Z,0.00
2023-05-09T00:10:43.362Z,0.00
2023-05-09T00:11:34.566Z,1.00
2023-05-09T00:12:25.903Z,0.00
2023-05-09T00:13:16.966Z,0.00
2023-05-09T00:14:08.155Z,0.00
2023-05-09T00:14:59.268Z,0.00
2023-05-09T00:15:49.912Z,0.00
2023-05-09T00:16:41.226Z,0.00
2023-05-09T00:17:32.409Z,0.00
2023-05-09T00:18:23.593Z,0.00
2023-05-09T00:19:14.824Z,0.00
2023-05-09T00:20:05.636Z,0.00
2023-05-09T00:20:56.424Z,0.00
2023-05-09T00:21:47.324Z,0.00
2023-05-09T00:22:38.045Z,0.00
2023-05-09T00:23:28.814Z,0.00
2023-05-09T00:24:19.604Z,0.00
2023-05-09T00:25:10.387Z,0.00
2023-05-09T00:26:01.109Z,0.00
2023-05-09T00:26:51.894Z,0.00
2023-05-09T00:27:42.693Z,0.00
2023-05-09T00:28:33.482Z,0.00
2023-05-09T00:29:24.273Z,0.00
2023-05-09T00:30:15.060Z,0.00
2023-05-09T00:31:05.848Z,0.00
2023-05-09T00:31:56.679Z,0.00
2023-05-09T00:32:47.531Z,0.00
2023-05-09T00:33:38.274Z,0.00
2023-05-09T00:34:29.037Z,0.00
2023-05-09T00:35:19.784Z,0.00
2023-05-09T00:36:10.578Z,0.00
2023-05-09T00:37:01.414Z,0.00
2023-05-09T00:37:52.067Z,0.00
2023-05-09T00:38:42.847Z,0.00
2023-05-09T00:39:33.641Z,0.00
2023-05-09T00:40:24.442Z,0.00
2023-05-09T00:41:15.248Z,0.00
2023-05-09T00:42:06.056Z,0.00
2023-05-09T00:42:56.817Z,0.00
2023-05-09T00:43:47.616Z,0.00
2023-05-09T00:44:38.403Z,0.00
2023-05-09T00:45:29.175Z,0.00
2023-05-09T00:46:19.945Z,1.00
2023-05-09T00:47:10.698Z,0.00
2023-05-09T00:48:01.562Z,0.00
2023-05-09T00:48:52.349Z,0.00
2023-05-09T00:49:43.734Z,0.00
2023-05-09T00:50:33.786Z,0.00
2023-05-09T00:51:24.569Z,0.00
2023-05-09T00:52:15.458Z,0.00
2023-05-09T00:53:06.111Z,0.00
2023-05-09T00:53:56.839Z,0.00
2023-05-09T00:54:47.657Z,0.00
2023-05-09T00:55:38.418Z,0.00
2023-05-09T00:56:29.205Z,0.00
2023-05-09T00:57:19.936Z,0.00
2023-05-09T00:58:10.723Z,0.00
2023-05-09T00:59:01.468Z,0.00
2023-05-09T00:59:52.255Z,0.00
2023-05-09T01:00:43.044Z,0.00
2023-05-09T01:01:33.879Z,0.00
2023-05-09T01:02:24.702Z,0.00
2023-05-09T01:03:15.664Z,0.00
2023-05-09T01:04:06.487Z,0.00
2023-05-09T01:04:57.269Z,0.00
2023-05-09T01:05:48.053Z,0.00
2023-05-09T01:06:38.843Z,0.00
2023-05-09T01:07:29.747Z,0.00
2023-05-09T01:08:20.452Z,0.00
2023-05-09T01:09:11.249Z,0.00
2023-05-09T01:10:02.045Z,0.00
2023-05-09T01:10:52.826Z,0.00
2023-05-09T01:11:43.598Z,0.00
2023-05-09T01:12:34.396Z,0.00
2023-05-09T01:13:25.223Z,0.00
2023-05-09T01:14:15.949Z,0.00
2023-05-09T01:15:06.759Z,0.00
2023-05-09T01:15:57.537Z,0.00
2023-05-09T01:16:48.295Z,0.00
2023-05-09T01:17:39.118Z,0.00
2023-05-09T01:18:29.877Z,0.00
2023-05-09T01:19:20.719Z,0.00
2023-05-09T01:20:11.504Z,0.00
2023-05-09T01:21:02.215Z,0.00
2023-05-09T01:21:53.008Z,0.00
2023-05-09T01:22:43.915Z,0.00
2023-05-09T01:23:34.628Z,0.00
2023-05-09T01:24:25.412Z,0.00
2023-05-09T01:25:16.390Z,0.00
2023-05-09T01:26:07.261Z,0.00
2023-05-09T01:26:59.227Z,0.00
2023-05-09T01:27:49.333Z,0.00
2023-05-09T01:28:40.148Z,0.00
2023-05-09T01:29:30.892Z,0.00
2023-05-09T01:30:21.669Z,0.00
2023-05-09T01:31:12.491Z,0.00
2023-05-09T01:32:03.195Z,0.00
2023-05-09T01:32:54.001Z,0.00
2023-05-09T01:33:44.771Z,0.00
2023-05-09T01:34:35.830Z,0.00
2023-05-09T01:35:26.671Z,0.00
2023-05-09T01:36:17.446Z,0.00
2023-05-09T01:37:08.233Z,0.00
2023-05-09T01:37:59.404Z,0.00
2023-05-09T01:38:50.125Z,0.00
2023-05-09T01:39:40.921Z,0.00
2023-05-09T01:40:31.711Z,0.00
2023-05-09T01:41:22.523Z,0.00
2023-05-09T01:42:13.292Z,0.00
2023-05-09T01:43:04.090Z,0.00
2023-05-09T01:43:54.931Z,0.00
2023-05-09T01:44:45.682Z,0.00
2023-05-09T01:45:36.475Z,0.00
2023-05-09T01:46:27.278Z,0.00
2023-05-09T01:47:18.066Z,0.00
2023-05-09T01:48:08.859Z,0.00
2023-05-09T01:48:59.618Z,0.00
2023-05-09T01:49:50.410Z,0.00
2023-05-09T01:50:41.173Z,0.00
2023-05-09T01:51:31.982Z,0.00
2023-05-09T01:52:22.770Z,0.00
2023-05-09T01:53:13.654Z,0.00
2023-05-09T01:54:04.377Z,0.00
2023-05-09T01:54:55.169Z,0.00
2023-05-09T01:55:45.976Z,0.00
2023-05-09T01:56:36.737Z,0.00
2023-05-09T01:57:27.533Z,0.00
2023-05-09T01:58:18.322Z,0.00
2023-05-09T01:59:09.102Z,0.00
2023-05-09T01:59:59.892Z,0.00
2023-05-09T02:00:50.710Z,0.00
2023-05-09T02:01:41.444Z,0.00
2023-05-09T02:02:32.335Z,0.00
2023-05-09T02:03:23.172Z,0.00
2023-05-09T02:04:13.958Z,0.00
2023-05-09T02:05:04.737Z,0.00
2023-05-09T02:05:55.517Z,0.00
2023-05-09T02:06:46.388Z,0.00
2023-05-09T02:07:37.146Z,0.00
2023-05-09T02:08:28.055Z,0.00
2023-05-09T02:09:18.862Z,0.00
2023-05-09T02:10:09.562Z,0.00
2023-05-09T02:11:00.369Z,0.00
2023-05-09T02:11:51.154Z,0.00
2023-05-09T02:12:41.941Z,0.00
2023-05-09T02:13:32.735Z,0.00
2023-05-09T02:14:23.554Z,0.00
2023-05-09T02:15:14.591Z,0.00
2023-05-09T02:16:05.601Z,0.00
2023-05-09T02:16:56.399Z,0.00
2023-05-09T02:17:47.200Z,0.00
2023-05-09T02:18:37.964Z,0.00
2023-05-09T02:19:28.736Z,0.00
2023-05-09T02:20:19.461Z,0.00
2023-05-09T02:21:10.226Z,0.00
2023-05-09T02:22:00.940Z,0.00
2023-05-09T02:22:51.592Z,0.00
2023-05-09T02:23:42.979Z,0.00
2023-05-09T02:24:33.652Z,0.00
2023-05-09T02:25:24.888Z,0.00
2023-05-09T02:26:15.964Z,0.00
2023-05-09T02:27:07.136Z,0.00
2023-05-09T02:27:57.901Z,0.00
2023-05-09T02:28:48.838Z,0.00
2023-05-09T02:29:39.946Z,0.00
2023-05-09T02:30:30.818Z,0.00
2023-05-09T02:31:21.869Z,0.00
2023-05-09T02:32:12.689Z,0.00
2023-05-09T02:33:03.781Z,0.00
2023-05-09T02:33:54.356Z,0.00
2023-05-09T02:34:45.136Z,0.00
2023-05-09T02:35:35.923Z,0.00
2023-05-09T02:36:26.676Z,0.00
2023-05-09T02:37:17.436Z,0.00
2023-05-09T02:38:08.190Z,0.00
2023-05-09T02:38:59.071Z,0.00
2023-05-09T02:39:49.776Z,0.00
2023-05-09T02:40:40.548Z,0.00
2023-05-09T02:41:31.327Z,0.00
2023-05-09T02:42:22.080Z,0.00
2023-05-09T02:43:48.782Z,0.00
2023-05-09T02:44:03.741Z,0.00
2023-05-09T02:44:54.521Z,0.00
2023-05-09T02:45:45.291Z,0.00
2023-05-09T02:46:36.050Z,0.00
2023-05-09T02:47:26.837Z,0.00
2023-05-09T02:48:17.649Z,0.00
2023-05-09T02:49:09.117Z,0.00
2023-05-09T02:49:59.236Z,0.00
2023-05-09T02:50:50.015Z,0.00
2023-05-09T02:51:40.773Z,0.00
2023-05-09T02:52:31.820Z,1.00
2023-05-09T02:53:22.666Z,1.00
2023-05-09T02:54:13.657Z,1.00
2023-05-09T02:55:04.447Z,1.00
2023-05-09T02:55:55.359Z,1.00
2023-05-09T02:56:46.171Z,1.00
2023-05-09T02:57:37.077Z,1.00
2023-05-09T02:58:28.126Z,0.00
2023-05-09T02:59:18.920Z,0.00
2023-05-09T03:00:09.746Z,0.00
2023-05-09T03:01:00.554Z,0.00
2023-05-09T03:01:51.369Z,2.00
2023-05-09T03:02:42.302Z,0.00
2023-05-09T03:03:32.914Z,1.00
2023-05-09T03:04:23.805Z,1.00
2023-05-09T03:05:14.868Z,3.00
2023-05-09T03:06:05.432Z,0.00
2023-05-09T03:06:56.077Z,6.00
2023-05-09T03:07:46.968Z,3.00
2023-05-09T03:08:37.822Z,3.00
2023-05-09T03:09:28.810Z,1.00
2023-05-09T03:10:19.603Z,5.00
2023-05-09T03:11:10.457Z,3.00
2023-05-09T03:12:01.343Z,5.00
2023-05-09T03:12:52.212Z,5.00
2023-05-09T03:13:43.064Z,4.00
2023-05-09T03:14:33.949Z,10.00
2023-05-09T03:15:24.805Z,5.00
2023-05-09T03:16:15.716Z,6.00
2023-05-09T03:17:06.542Z,7.00
2023-05-09T03:17:57.427Z,8.00
2023-05-09T03:18:48.279Z,8.00
2023-05-09T03:19:39.161Z,8.00
2023-05-09T03:20:30.029Z,10.00
2023-05-09T03:21:20.903Z,13.00
2023-05-09T03:22:11.764Z,18.00
2023-05-09T03:23:02.654Z,14.00
2023-05-09T03:23:53.544Z,18.00
2023-05-09T03:24:44.542Z,19.00
2023-05-09T03:25:35.356Z,22.00
2023-05-09T03:26:26.248Z,20.00
2023-05-09T03:30:34.661Z,30.00
2023-05-09T03:31:25.578Z,31.00
2023-05-09T03:32:16.437Z,35.00
2023-05-09T03:33:07.345Z,37.00
2023-05-09T03:33:58.207Z,38.00
2023-05-09T03:34:49.104Z,38.00
2023-05-09T03:35:40.002Z,44.00
2023-05-09T03:36:30.882Z,47.00
2023-05-09T03:37:21.763Z,49.00
2023-05-09T03:38:12.648Z,48.00
2023-05-09T03:39:03.534Z,56.00
2023-05-09T03:39:54.539Z,58.00
2023-05-09T03:40:45.381Z,61.00
2023-05-09T03:41:36.243Z,59.00
2023-05-09T03:42:27.128Z,68.00
2023-05-09T03:43:18.013Z,71.00
2023-05-09T03:44:08.900Z,71.00
2023-05-09T03:44:59.777Z,76.00
2023-05-09T03:45:50.686Z,79.00
2023-05-09T03:46:41.604Z,81.00
2023-05-09T03:47:32.498Z,87.00
2023-05-09T03:48:23.363Z,86.00
2023-05-09T03:49:14.270Z,93.00
2023-05-09T03:50:05.142Z,94.00
2023-05-09T03:50:56.053Z,98.00
2023-05-09T03:51:46.926Z,74.00
2023-05-09T03:52:39.022Z,68.00
2023-05-09T03:53:28.686Z,76.00
2023-05-09T03:54:19.584Z,82.00
2023-05-09T03:55:10.582Z,82.00
2023-05-09T03:56:01.518Z,81.00
2023-05-09T03:56:52.394Z,86.00
2023-05-09T03:57:43.360Z,90.00
2023-05-09T03:58:34.244Z,90.00
2023-05-09T03:59:25.158Z,92.00
2023-05-09T04:00:16.059Z,93.00
2023-05-09T04:01:06.981Z,94.00
2023-05-09T04:01:57.861Z,96.00
2023-05-09T04:02:48.900Z,98.00
2023-05-09T04:03:39.815Z,98.00
2023-05-09T04:04:30.713Z,98.00
2023-05-09T04:05:21.606Z,101.00
2023-05-09T04:06:12.567Z,101.00
2023-05-09T04:07:03.448Z,103.00
2023-05-09T04:07:54.394Z,105.00
2023-05-09T04:08:45.291Z,107.00
2023-05-09T04:09:36.280Z,111.00
2023-05-09T04:10:27.315Z,112.00
2023-05-09T04:11:18.203Z,114.00
2023-05-09T04:12:09.096Z,115.00
2023-05-09T04:13:00.088Z,118.00
2023-05-09T04:13:50.988Z,118.00
2023-05-09T04:14:41.949Z,119.00
2023-05-09T04:15:32.849Z,117.00
2023-05-09T04:16:23.821Z,83.00
2023-05-09T04:17:14.648Z,99.00
2023-05-09T04:18:05.703Z,94.00
2023-05-09T04:18:56.599Z,105.00
2023-05-09T04:19:47.541Z,99.00
2023-05-09T04:20:38.402Z,102.00
2023-05-09T04:21:29.330Z,128.00
2023-05-09T04:22:20.224Z,140.00
2023-05-09T04:23:11.188Z,142.00
2023-05-09T04:24:02.096Z,145.00
2023-05-09T04:24:53.085Z,149.00
2023-05-09T04:25:44.110Z,153.00
2023-05-09T04:26:35.001Z,152.00
2023-05-09T04:27:25.892Z,157.00
2023-05-09T04:28:16.868Z,158.00
2023-05-09T04:29:07.755Z,160.00
2023-05-09T04:29:58.746Z,161.00
2023-05-09T04:30:49.718Z,161.00
2023-05-09T04:31:40.761Z,162.00
2023-05-09T04:32:31.685Z,164.00
2023-05-09T04:33:22.634Z,167.00
2023-05-09T04:34:13.527Z,169.00
2023-05-09T04:35:04.515Z,173.00
2023-05-09T04:35:55.409Z,171.00
2023-05-09T04:36:46.339Z,105.00
2023-05-09T04:37:37.239Z,141.00
2023-05-09T04:38:28.194Z,149.00
2023-05-09T04:39:19.094Z,145.00
2023-05-09T04:40:10.079Z,195.00
2023-05-09T04:41:01.138Z,199.00
2023-05-09T04:41:52.006Z,202.00
2023-05-09T04:42:42.917Z,207.00
2023-05-09T04:43:33.829Z,210.00
2023-05-09T04:44:24.738Z,214.00
2023-05-09T04:45:16.048Z,217.00
2023-05-09T04:46:06.560Z,219.00
2023-05-09T04:46:57.436Z,222.00
2023-05-09T04:47:48.377Z,225.00
2023-05-09T04:48:39.262Z,227.00
2023-05-09T04:49:30.176Z,229.00
2023-05-09T04:50:21.115Z,229.00
2023-05-09T04:51:12.011Z,231.00
2023-05-09T04:52:02.957Z,233.00
2023-05-09T04:52:53.855Z,233.00
2023-05-09T04:53:44.774Z,234.00
2023-05-09T04:54:35.676Z,237.00
2023-05-09T04:55:26.594Z,240.00
2023-05-09T04:56:17.633Z,245.00
2023-05-09T04:57:17.397Z,249.00
2023-05-09T04:58:00.392Z,251.00
2023-05-09T04:58:50.088Z,256.00
2023-05-09T04:59:40.992Z,257.00
2023-05-09T05:00:31.905Z,260.00
2023-05-09T05:01:22.868Z,263.00
2023-05-09T05:02:13.735Z,263.00
2023-05-09T05:03:04.692Z,264.00
2023-05-09T05:03:55.567Z,266.00
2023-05-09T05:04:46.461Z,266.00
2023-05-09T05:05:37.989Z,270.00
2023-05-09T05:06:28.353Z,270.00
2023-05-09T05:07:19.262Z,270.00
2023-05-09T05:08:10.180Z,273.00
2023-05-09T05:09:01.108Z,276.00
2023-05-09T05:09:52.022Z,280.00
2023-05-09T05:10:42.930Z,282.00
2023-05-09T05:11:33.966Z,283.00
2023-05-09T05:12:24.818Z,284.00
2023-05-09T05:13:15.753Z,289.00
2023-05-09T05:14:06.640Z,291.00
2023-05-09T05:14:57.546Z,295.00
2023-05-09T05:15:48.488Z,298.00
2023-05-09T05:16:39.430Z,302.00
2023-05-09T05:17:30.359Z,307.00
2023-05-09T05:18:21.286Z,310.00
2023-05-09T05:19:12.202Z,314.00
2023-05-09T05:20:03.117Z,317.00
2023-05-09T05:20:54.021Z,320.00
2023-05-09T05:21:44.953Z,321.00
2023-05-09T05:22:35.884Z,325.00
2023-05-09T05:23:26.789Z,328.00
2023-05-09T05:24:17.685Z,330.00
2023-05-09T05:25:08.606Z,333.00
2023-05-09T05:25:59.506Z,336.00
2023-05-09T05:26:50.576Z,339.00
2023-05-09T05:27:41.422Z,340.00
2023-05-09T05:28:32.345Z,342.00
2023-05-09T05:29:23.256Z,346.00
2023-05-09T05:30:14.206Z,347.00
2023-05-09T05:31:05.123Z,349.00
2023-05-09T05:31:56.081Z,352.00
2023-05-09T05:32:46.955Z,353.00
2023-05-09T05:33:37.863Z,356.00
2023-05-09T05:34:28.815Z,357.00
2023-05-09T05:35:19.729Z,360.00
2023-05-09T05:36:10.642Z,362.00
2023-05-09T05:37:01.561Z,364.00
2023-05-09T05:37:52.493Z,366.00
2023-05-09T05:38:43.388Z,369.00
2023-05-09T05:39:34.301Z,372.00
2023-05-09T05:40:25.217Z,373.00
2023-05-09T05:41:16.119Z,374.00
2023-05-09T05:42:07.166Z,375.00
2023-05-09T05:42:58.016Z,380.00
2023-05-09T05:43:48.930Z,380.00
2023-05-09T05:44:39.836Z,382.00
2023-05-09T05:45:30.796Z,383.00
2023-05-09T05:46:21.701Z,384.00
2023-05-09T05:47:12.587Z,386.00
2023-05-09T05:48:03.325Z,386.00
2023-05-09T05:48:54.175Z,388.00
2023-05-09T05:49:44.834Z,389.00
2023-05-09T05:50:35.741Z,392.00
2023-05-09T05:51:26.653Z,393.00
2023-05-09T05:52:17.566Z,392.00
2023-05-09T05:53:08.489Z,394.00
2023-05-09T05:53:59.390Z,395.00
2023-05-09T05:54:50.307Z,398.00
2023-05-09T05:55:41.220Z,397.00
2023-05-09T05:56:32.118Z,400.00
2023-05-09T05:57:23.168Z,402.00
2023-05-09T05:58:14.077Z,405.00
2023-05-09T05:59:05.013Z,406.00
2023-05-09T05:59:55.924Z,409.00
2023-05-09T06:00:46.836Z,409.00
2023-05-09T06:01:37.748Z,411.00
2023-05-09T06:02:28.824Z,413.00
2023-05-09T06:03:19.788Z,417.00
2023-05-09T06:04:10.761Z,418.00
2023-05-09T06:05:01.643Z,420.00
2023-05-09T06:05:52.537Z,422.00
2023-05-09T06:06:43.451Z,425.00
2023-05-09T06:07:34.378Z,426.00
2023-05-09T06:08:25.286Z,428.00
2023-05-09T06:09:16.191Z,429.00
2023-05-09T06:10:07.103Z,431.00
2023-05-09T06:10:58.013Z,431.00
2023-05-09T06:11:48.922Z,435.00
2023-05-09T06:12:40.036Z,437.00
2023-05-09T06:13:30.890Z,440.00
2023-05-09T06:14:21.799Z,444.00
2023-05-09T06:15:12.955Z,445.00
2023-05-09T06:16:15.061Z,447.00
2023-05-09T06:16:55.443Z,449.00
2023-05-09T06:17:45.173Z,451.00
2023-05-09T06:18:36.043Z,453.00
2023-05-09T06:19:26.959Z,457.00
2023-05-09T06:20:17.862Z,459.00
2023-05-09T06:21:08.788Z,462.00
2023-05-09T06:21:59.693Z,464.00
2023-05-09T06:22:50.631Z,466.00
2023-05-09T06:23:51.081Z,468.00
2023-05-09T06:24:36.302Z,471.00
2023-05-09T06:25:23.146Z,472.00
2023-05-09T06:26:14.065Z,473.00
2023-05-09T06:27:04.967Z,476.00
2023-05-09T06:27:56.026Z,477.00
2023-05-09T06:28:46.879Z,479.00
2023-05-09T06:29:37.778Z,483.00
2023-05-09T06:30:28.725Z,484.00
2023-05-09T06:31:19.630Z,485.00
2023-05-09T06:32:10.517Z,486.00
2023-05-09T06:33:01.466Z,490.00
2023-05-09T06:33:52.381Z,490.00
2023-05-09T06:34:43.256Z,492.00
2023-05-09T06:35:34.170Z,496.00
2023-05-09T06:36:25.091Z,495.00
2023-05-09T06:37:16.008Z,498.00
2023-05-09T06:38:06.924Z,502.00
2023-05-09T06:38:57.832Z,503.00
2023-05-09T06:39:48.746Z,505.00
2023-05-09T06:40:39.666Z,510.00
2023-05-09T06:41:30.579Z,514.00
2023-05-09T06:42:21.529Z,517.00
2023-05-09T06:43:12.545Z,521.00
2023-05-09T06:44:03.385Z,526.00
2023-05-09T06:44:54.322Z,530.00
2023-05-09T06:45:45.223Z,533.00
2023-05-09T06:46:36.155Z,538.00
2023-05-09T06:47:27.099Z,546.00
2023-05-09T06:48:17.997Z,547.00
2023-05-09T06:49:08.908Z,552.00
2023-05-09T06:49:59.836Z,558.00
2023-05-09T06:50:50.754Z,562.00
2023-05-09T06:51:41.653Z,565.00
2023-05-09T06:52:32.590Z,569.00
2023-05-09T06:53:23.492Z,574.00
2023-05-09T06:54:14.403Z,576.00
2023-05-09T06:55:05.307Z,582.00
2023-05-09T06:55:56.238Z,587.00
2023-05-09T06:56:47.140Z,590.00
2023-05-09T06:57:38.077Z,595.00
2023-05-09T06:58:29.115Z,599.00
2023-05-09T06:59:19.961Z,604.00
2023-05-09T07:00:10.887Z,607.00
2023-05-09T07:01:01.788Z,608.00
2023-05-09T07:01:52.723Z,610.00
2023-05-09T07:02:43.641Z,613.00
2023-05-09T07:03:34.538Z,615.00
2023-05-09T07:04:25.445Z,621.00
2023-05-09T07:05:16.667Z,624.00
2023-05-09T07:06:07.180Z,627.00
2023-05-09T07:06:58.091Z,630.00
2023-05-09T07:07:48.989Z,635.00
2023-05-09T07:08:39.911Z,634.00
2023-05-09T07:09:30.848Z,636.00
2023-05-09T07:10:21.751Z,635.00
2023-05-09T07:11:12.653Z,638.00
2023-05-09T07:12:03.573Z,638.00
2023-05-09T07:12:54.551Z,644.00
2023-05-09T07:13:45.535Z,649.00
2023-05-09T07:14:36.383Z,650.00
2023-05-09T07:15:39.845Z,658.00
2023-05-09T07:16:19.208Z,661.00
2023-05-09T07:17:22.134Z,662.00
2023-05-09T07:18:00.842Z,665.00
2023-05-09T07:18:50.504Z,676.00
2023-05-09T07:19:41.420Z,678.00
2023-05-09T07:20:32.324Z,684.00
2023-05-09T07:21:23.244Z,688.00
2023-05-09T07:22:14.172Z,696.00
2023-05-09T07:23:05.070Z,702.00
2023-05-09T07:23:55.973Z,706.00
2023-05-09T07:24:46.890Z,717.00
2023-05-09T07:25:37.804Z,712.00
2023-05-09T07:26:28.732Z,724.00
2023-05-09T07:27:19.634Z,721.00
2023-05-09T07:28:10.550Z,721.00
2023-05-09T07:29:01.573Z,722.00
2023-05-09T07:29:52.410Z,713.00
2023-05-09T07:30:43.314Z,722.00
2023-05-09T07:31:37.264Z,724.00
2023-05-09T07:32:25.297Z,726.00
2023-05-09T07:33:16.201Z,725.00
2023-05-09T07:34:07.094Z,724.00
2023-05-09T07:34:58.002Z,733.00
2023-05-09T07:35:48.913Z,735.00
2023-05-09T07:36:39.861Z,741.00
2023-05-09T07:37:30.752Z,748.00
2023-05-09T07:38:21.657Z,755.00
2023-05-09T07:39:12.552Z,759.00
2023-05-09T07:40:03.468Z,766.00
2023-05-09T07:40:54.384Z,769.00
2023-05-09T07:41:46.419Z,769.00
2023-05-09T07:42:36.204Z,775.00
2023-05-09T07:43:27.129Z,782.00
2023-05-09T07:44:18.159Z,793.00
2023-05-09T07:45:09.007Z,802.00
2023-05-09T07:45:59.961Z,808.00
2023-05-09T07:46:50.860Z,815.00
2023-05-09T07:47:41.796Z,824.00
2023-05-09T07:48:32.689Z,829.00
2023-05-09T07:49:23.600Z,830.00
2023-05-09T07:50:14.520Z,848.00
2023-05-09T07:51:05.419Z,856.00
2023-05-09T07:51:56.347Z,878.00
2023-05-09T07:52:47.249Z,889.00
2023-05-09T07:53:38.159Z,906.00
2023-05-09T07:54:29.079Z,919.00
2023-05-09T07:55:19.991Z,939.00
2023-05-09T07:56:10.908Z,954.00
2023-05-09T07:57:01.810Z,977.00
2023-05-09T07:57:52.722Z,984.00
2023-05-09T07:58:43.642Z,995.00
2023-05-09T07:59:34.678Z,1010.00
2023-05-09T08:00:25.542Z,1019.00
2023-05-09T08:01:16.448Z,1019.00
2023-05-09T08:02:07.429Z,1029.00
2023-05-09T08:02:58.420Z,1036.00
2023-05-09T08:03:49.518Z,1043.00
2023-05-09T08:04:40.544Z,1047.00
2023-05-09T08:05:31.442Z,1048.00
2023-05-09T08:06:22.370Z,1058.00
2023-05-09T08:07:13.116Z,1057.00
2023-05-09T08:08:04.035Z,1057.00
2023-05-09T08:08:54.968Z,1059.00
2023-05-09T08:09:45.887Z,1067.00
2023-05-09T08:10:36.842Z,1073.00
2023-05-09T08:11:27.741Z,1077.00
2023-05-09T08:12:18.675Z,1074.00
2023-05-09T08:13:09.657Z,1079.00
2023-05-09T08:14:00.526Z,1083.00
2023-05-09T08:14:51.588Z,1091.00
2023-05-09T08:15:42.478Z,1103.00
2023-05-09T08:16:33.429Z,1110.00
2023-05-09T08:17:24.308Z,1120.00
2023-05-09T08:18:15.233Z,1127.00
2023-05-09T08:19:06.165Z,1133.00
2023-05-09T08:19:57.095Z,1146.00
2023-05-09T08:20:48.015Z,1161.00
2023-05-09T08:21:38.937Z,1162.00
2023-05-09T08:22:29.867Z,1171.00
2023-05-09T08:23:20.798Z,1176.00
2023-05-09T08:24:11.720Z,1191.00
2023-05-09T08:25:02.641Z,1205.00
2023-05-09T08:25:53.582Z,1220.00
2023-05-09T08:26:44.495Z,1239.00
2023-05-09T08:27:35.422Z,1253.00
2023-05-09T08:28:26.349Z,1257.00
2023-05-09T08:29:17.283Z,1259.00
2023-05-09T08:30:08.373Z,1264.00
2023-05-09T08:30:59.244Z,1276.00
2023-05-09T08:31:50.287Z,1280.00
2023-05-09T08:32:41.276Z,1283.00
2023-05-09T08:33:32.199Z,1290.00
2023-05-09T08:34:23.163Z,1279.00
2023-05-09T08:35:14.402Z,1282.00
2023-05-09T08:36:04.942Z,1285.00
2023-05-09T08:36:55.866Z,1296.00
2023-05-09T08:37:46.792Z,1312.00
2023-05-09T08:38:37.729Z,1326.00
2023-05-09T08:39:28.667Z,1343.00
2023-05-09T08:40:19.582Z,1361.00
2023-05-09T08:41:10.506Z,1376.00
2023-05-09T08:42:01.430Z,1384.00
2023-05-09T08:42:52.351Z,1394.00
2023-05-09T08:43:43.278Z,1401.00
2023-05-09T08:44:34.208Z,1421.00
2023-05-09T08:45:25.241Z,1433.00
2023-05-09T08:46:16.111Z,1450.00
2023-05-09T08:47:07.018Z,1465.00
2023-05-09T08:47:57.970Z,1480.00
2023-05-09T08:48:48.887Z,1489.00
2023-05-09T08:49:39.806Z,1503.00
2023-05-09T08:50:30.725Z,1515.00
2023-05-09T08:51:21.657Z,1546.00
2023-05-09T08:52:12.575Z,1552.00
2023-05-09T08:53:03.516Z,1575.00
2023-05-09T08:53:54.455Z,1592.00
2023-05-09T08:54:45.394Z,1608.00
2023-05-09T08:55:36.366Z,1625.00
2023-05-09T08:56:27.278Z,1634.00
2023-05-09T08:57:18.228Z,1655.00
2023-05-09T08:58:09.172Z,1672.00
2023-05-09T08:59:00.116Z,1698.00
2023-05-09T08:59:51.029Z,1721.00
2023-05-09T09:00:42.131Z,1749.00
2023-05-09T09:01:33.051Z,1785.00
2023-05-09T09:02:23.930Z,1821.00
2023-05-09T09:03:14.915Z,1849.00
2023-05-09T09:04:05.844Z,1869.00
2023-05-09T09:04:56.830Z,1896.00
2023-05-09T09:05:47.817Z,1918.00
2023-05-09T09:06:38.707Z,1942.00
2023-05-09T09:07:31.150Z,1979.00
2023-05-09T09:08:20.394Z,2008.00
2023-05-09T09:09:11.332Z,2036.00
2023-05-09T09:10:02.275Z,2070.00
2023-05-09T09:10:53.220Z,2087.00
2023-05-09T09:11:44.163Z,2104.00
2023-05-09T09:12:35.108Z,2141.00
2023-05-09T09:13:26.108Z,2166.00
2023-05-09T09:14:17.055Z,2192.00
2023-05-09T09:15:08.001Z,2200.00
2023-05-09T09:15:59.245Z,2206.00
2023-05-09T09:16:49.680Z,2227.00
2023-05-09T09:17:40.619Z,2254.00
2023-05-09T09:18:31.545Z,2248.00
2023-05-09T09:19:22.499Z,2263.00
2023-05-09T09:20:13.862Z,2227.00
2023-05-09T09:21:04.206Z,2244.00
2023-05-09T09:21:55.150Z,2223.00
2023-05-09T09:22:46.090Z,2237.00
2023-05-09T09:23:37.038Z,2241.00
2023-05-09T09:24:27.977Z,2242.00
2023-05-09T09:25:18.912Z,2246.00
2023-05-09T09:26:09.881Z,2236.00
2023-05-09T09:27:00.803Z,2238.00
2023-05-09T09:27:51.728Z,2254.00
2023-05-09T09:28:42.670Z,2254.00
2023-05-09T09:29:33.600Z,2234.00
2023-05-09T09:30:24.539Z,2209.00
2023-05-09T09:31:17.213Z,2179.00
2023-05-09T09:32:06.371Z,2167.00
2023-05-09T09:32:57.391Z,2173.00
2023-05-09T09:33:48.308Z,2164.00
2023-05-09T09:34:39.227Z,2181.00
2023-05-09T09:35:30.168Z,2173.00
2023-05-09T09:36:21.100Z,2172.00
2023-05-09T09:37:12.046Z,2188.00
2023-05-09T09:38:02.989Z,2191.00
2023-05-09T09:38:53.933Z,2207.00
2023-05-09T09:39:44.852Z,2215.00
2023-05-09T09:40:35.789Z,2205.00
2023-05-09T09:41:26.725Z,2203.00
2023-05-09T09:42:17.667Z,2176.00
2023-05-09T09:43:08.610Z,2168.00
2023-05-09T09:43:59.558Z,2155.00
2023-05-09T09:44:50.486Z,2128.00
2023-05-09T09:45:41.469Z,2135.00
2023-05-09T09:46:32.523Z,2125.00
2023-05-09T09:47:23.391Z,2128.00
2023-05-09T09:48:14.365Z,2122.00
2023-05-09T09:49:05.271Z,2114.00
2023-05-09T09:49:56.207Z,2094.00
2023-05-09T09:50:47.151Z,2101.00
2023-05-09T09:51:38.089Z,2096.00
2023-05-09T09:52:29.027Z,2092.00
2023-05-09T09:53:19.975Z,2085.00
2023-05-09T09:54:10.903Z,2052.00
2023-05-09T09:55:01.856Z,2052.00
2023-05-09T09:55:52.787Z,2056.00
2023-05-09T09:56:43.727Z,2037.00
2023-05-09T09:57:34.668Z,2040.00
2023-05-09T09:58:25.614Z,2040.00
2023-05-09T09:59:16.554Z,2031.00
2023-05-09T10:00:07.488Z,2025.00
2023-05-09T10:00:58.463Z,2027.00
2023-05-09T10:01:49.538Z,2019.00
2023-05-09T10:02:40.491Z,2028.00
2023-05-09T10:03:31.432Z,2023.00
2023-05-09T10:04:22.354Z,2013.00
2023-05-09T10:05:13.278Z,2015.00
2023-05-09T10:06:04.214Z,2010.00
2023-05-09T10:06:55.149Z,2017.00
2023-05-09T10:07:46.109Z,2011.00
2023-05-09T10:08:37.031Z,2001.00
2023-05-09T10:09:27.970Z,1996.00
2023-05-09T10:10:18.928Z,1994.00
2023-05-09T10:11:09.861Z,1988.00
2023-05-09T10:12:00.780Z,1980.00
2023-05-09T10:12:51.755Z,1988.00
2023-05-09T10:13:42.673Z,1985.00
2023-05-09T10:14:35.298Z,1972.00
2023-05-09T10:15:24.686Z,1963.00
2023-05-09T10:16:16.102Z,1983.00
2023-05-09T10:17:06.808Z,1982.00
2023-05-09T10:17:57.303Z,1999.00
2023-05-09T10:18:48.349Z,2003.00
2023-05-09T10:19:39.352Z,2004.00
2023-05-09T10:20:30.291Z,2039.00
2023-05-09T10:21:21.230Z,2055.00
2023-05-09T10:22:12.190Z,2088.00
2023-05-09T10:23:03.111Z,2106.00
2023-05-09T10:23:54.053Z,2123.00
2023-05-09T10:24:45.012Z,2124.00
2023-05-09T10:25:35.932Z,2141.00
2023-05-09T10:26:26.904Z,2193.00
2023-05-09T10:27:17.812Z,2228.00
2023-05-09T10:28:08.750Z,2257.00
2023-05-09T10:28:59.698Z,2268.00
2023-05-09T10:29:50.624Z,2290.00
2023-05-09T10:30:41.565Z,2283.00
2023-05-09T10:31:32.576Z,2284.00
2023-05-09T10:32:23.605Z,2287.00
2023-05-09T10:33:14.466Z,2279.00
2023-05-09T10:34:05.410Z,2327.00
2023-05-09T10:34:56.345Z,2330.00
2023-05-09T10:35:47.279Z,2323.00
2023-05-09T10:36:38.231Z,2344.00
2023-05-09T10:37:29.864Z,2354.00
2023-05-09T10:38:20.012Z,2362.00
2023-05-09T10:39:10.937Z,2373.00
2023-05-09T10:40:01.959Z,2360.00
2023-05-09T10:40:52.831Z,2366.00
2023-05-09T10:41:43.769Z,2376.00
2023-05-09T10:42:34.704Z,2380.00
2023-05-09T10:43:25.642Z,2358.00
2023-05-09T10:44:16.576Z,2367.00
2023-05-09T10:45:07.520Z,2365.00
2023-05-09T10:45:58.457Z,2352.00
2023-05-09T10:46:49.462Z,2362.00